createdAt,value
2023-03-24T00:00:36.345Z,3.93
2023-03-24T00:03:18.544Z,3.70
2023-03-24T00:06:07.969Z,3.60
2023-03-24T00:08:48.969Z,3.13
2023-03-24T00:11:38.015Z,3.07
2023-03-24T00:14:18.625Z,3.20
2023-03-24T00:16:53.927Z,3.50
2023-03-24T00:19:39.937Z,3.10
2023-03-24T00:22:23.087Z,3.00
2023-03-24T00:25:01.487Z,4.40
2023-03-24T00:27:38.666Z,3.27
2023-03-24T00:30:17.616Z,3.17
2023-03-24T00:32:53.746Z,3.43
2023-03-24T00:35:27.338Z,3.60
2023-03-24T00:38:08.137Z,3.03
2023-03-24T00:40:53.785Z,3.30
2023-03-24T00:43:26.443Z,3.30
2023-03-24T00:46:06.300Z,2.97
2023-03-24T00:48:43.512Z,3.00
2023-03-24T00:51:37.112Z,3.50
2023-03-24T00:54:14.969Z,2.93
2023-03-24T00:56:49.980Z,3.30
2023-03-24T00:59:23.091Z,3.80
2023-03-24T01:01:54.440Z,2.93
2023-03-24T01:04:29.753Z,3.40
2023-03-24T01:07:06.826Z,3.10
2023-03-24T01:09:39.666Z,3.43
2023-03-24T01:12:17.546Z,3.03
2023-03-24T01:15:02.676Z,3.20
2023-03-24T01:17:39.500Z,2.80
2023-03-24T01:20:16.102Z,2.70
2023-03-24T01:22:55.592Z,2.77
2023-03-24T01:25:33.155Z,3.30
2023-03-24T01:28:16.392Z,3.00
2023-03-24T01:30:50.936Z,3.03
2023-03-24T01:33:28.243Z,2.93
2023-03-24T01:36:07.819Z,2.60
2023-03-24T01:38:50.594Z,3.40
2023-03-24T01:41:25.507Z,3.93
2023-03-24T01:44:05.500Z,2.70
2023-03-24T01:46:42.849Z,3.00
2023-03-24T01:49:15.983Z,2.83
2023-03-24T01:51:59.537Z,3.10
2023-03-24T01:54:40.704Z,3.30
2023-03-24T01:57:19.322Z,2.60
2023-03-24T01:59:56.054Z,3.70
2023-03-24T02:02:59.164Z,2.77
2023-03-24T02:05:38.582Z,2.93
2023-03-24T02:08:18.334Z,2.43
2023-03-24T02:10:54.317Z,3.67
2023-03-24T02:13:32.670Z,2.40
2023-03-24T02:16:40.418Z,3.20
2023-03-24T02:19:48.013Z,2.90
2023-03-24T02:22:50.773Z,3.10
2023-03-24T02:26:13.330Z,3.37
2023-03-24T02:29:28.284Z,2.37
2023-03-24T02:32:49.919Z,3.17
2023-03-24T02:36:05.058Z,3.00
2023-03-24T02:39:06.954Z,3.17
2023-03-24T02:41:48.136Z,3.00
2023-03-24T02:44:31.699Z,3.20
2023-03-24T02:47:13.789Z,3.30
2023-03-24T02:49:51.135Z,2.90
2023-03-24T02:52:33.931Z,2.77
2023-03-24T02:55:10.034Z,2.87
2023-03-24T02:57:49.144Z,3.00
2023-03-24T03:00:50.884Z,3.23
2023-03-24T03:03:56.522Z,2.90
2023-03-24T03:06:33.762Z,2.60
2023-03-24T03:09:13.171Z,3.80
2023-03-24T03:11:48.865Z,3.90
2023-03-24T03:14:31.989Z,2.80
2023-03-24T03:17:13.022Z,4.93
2023-03-24T03:19:50.850Z,4.10
2023-03-24T03:22:31.052Z,3.50
2023-03-24T03:25:10.511Z,3.27
2023-03-24T03:27:49.331Z,2.47
2023-03-24T03:30:28.316Z,2.90
2023-03-24T03:33:06.429Z,2.40
2023-03-24T03:35:43.263Z,2.47
2023-03-24T03:38:25.967Z,3.90
2023-03-24T03:41:01.611Z,3.00
2023-03-24T03:43:39.794Z,3.40
2023-03-24T03:46:23.187Z,3.57
2023-03-24T03:48:54.312Z,3.53
2023-03-24T03:51:33.676Z,3.77
2023-03-24T03:54:11.580Z,3.67
2023-03-24T03:56:50.983Z,3.80
2023-03-24T03:59:37.487Z,3.43
2023-03-24T04:02:34.229Z,2.70
2023-03-24T04:05:36.973Z,3.10
2023-03-24T04:08:34.914Z,3.37
2023-03-24T04:11:50.785Z,2.90
2023-03-24T04:15:09.873Z,3.80
2023-03-24T04:18:21.979Z,3.20
2023-03-24T04:21:35.218Z,4.37
2023-03-24T04:24:31.297Z,3.20
2023-03-24T04:27:19.519Z,3.80
2023-03-24T04:30:16.732Z,4.20
2023-03-24T04:33:03.539Z,3.77
2023-03-24T04:35:56.704Z,4.43
2023-03-24T04:38:47.499Z,3.57
2023-03-24T04:41:40.434Z,4.00
2023-03-24T04:44:26.590Z,4.43
2023-03-24T04:51:04.424Z,4.63
2023-03-24T04:53:59.363Z,4.73
2023-03-24T04:56:43.187Z,4.40
2023-03-24T04:59:28.116Z,4.30
2023-03-24T05:02:01.880Z,4.60
2023-03-24T05:04:40.577Z,4.30
2023-03-24T05:07:21.881Z,5.00
2023-03-24T05:10:03.774Z,4.43
2023-03-24T05:12:40.253Z,5.40
2023-03-24T05:15:47.271Z,5.63
2023-03-24T05:18:31.622Z,4.50
2023-03-24T05:21:05.215Z,3.93
2023-03-24T05:23:51.630Z,4.47
2023-03-24T05:26:30.415Z,5.70
2023-03-24T05:29:15.808Z,4.70
2023-03-24T05:32:15.609Z,6.20
2023-03-24T05:35:16.585Z,4.17
2023-03-24T05:37:50.032Z,4.53
2023-03-24T05:40:30.863Z,5.10
2023-03-24T05:43:22.605Z,4.53
2023-03-24T05:46:18.230Z,5.07
2023-03-24T05:48:53.567Z,4.00
2023-03-24T05:51:26.439Z,4.63
2023-03-24T05:54:28.940Z,5.00
2023-03-24T05:57:23.810Z,5.57
2023-03-24T06:00:27.011Z,4.53
2023-03-24T06:03:07.069Z,4.53
2023-03-24T06:05:55.964Z,4.80
2023-03-24T06:08:29.348Z,4.07
2023-03-24T06:11:09.201Z,4.70
2023-03-24T06:14:03.601Z,3.97
2023-03-24T06:16:55.812Z,3.87
2023-03-24T06:19:41.532Z,4.27
2023-03-24T06:23:16.590Z,4.30
2023-03-24T06:26:26.381Z,4.20
2023-03-24T06:29:04.969Z,4.73
2023-03-24T06:31:40.767Z,5.20
2023-03-24T06:34:16.353Z,4.10
2023-03-24T06:36:59.099Z,4.40
2023-03-24T06:39:33.708Z,3.60
2023-03-24T06:42:13.277Z,4.03
2023-03-24T06:44:48.104Z,3.90
2023-03-24T06:47:19.995Z,4.20
2023-03-24T06:49:55.471Z,4.47
2023-03-24T06:52:29.754Z,4.37
2023-03-24T06:55:01.274Z,4.50
2023-03-24T06:57:37.776Z,5.00
2023-03-24T07:00:31.472Z,4.10
2023-03-24T07:03:24.784Z,4.50
2023-03-24T07:06:20.147Z,5.20
2023-03-24T07:08:58.728Z,4.50
2023-03-24T07:11:32.233Z,4.33
2023-03-24T07:14:10.599Z,4.93
2023-03-24T07:16:50.209Z,5.20
2023-03-24T07:19:55.923Z,3.93
2023-03-24T07:22:44.957Z,4.50
2023-03-24T07:25:45.866Z,4.87
2023-03-24T07:28:23.841Z,4.00
2023-03-24T07:30:57.425Z,4.47
2023-03-24T07:33:31.743Z,4.93
2023-03-24T07:36:04.182Z,4.50
2023-03-24T07:38:39.772Z,3.97
2023-03-24T07:41:16.149Z,3.60
2023-03-24T07:43:55.191Z,3.77
2023-03-24T07:46:36.836Z,4.30
2023-03-24T07:49:18.668Z,4.53
2023-03-24T07:52:07.487Z,3.43
2023-03-24T07:54:43.207Z,3.70
2023-03-24T07:57:20.366Z,4.07
2023-03-24T07:59:53.315Z,3.57
2023-03-24T08:03:20.426Z,4.63
2023-03-24T08:06:18.375Z,3.70
2023-03-24T08:08:56.493Z,4.13
2023-03-24T08:11:33.251Z,4.83
2023-03-24T08:14:05.109Z,4.40
2023-03-24T08:16:39.425Z,3.60
2023-03-24T08:19:12.271Z,4.20
2023-03-24T08:21:49.329Z,4.50
2023-03-24T08:24:24.726Z,4.50
2023-03-24T08:26:59.526Z,5.03
2023-03-24T08:29:31.104Z,4.67
2023-03-24T08:32:02.134Z,4.80
2023-03-24T08:34:33.310Z,3.67
2023-03-24T08:37:05.347Z,6.33
2023-03-24T08:39:36.610Z,4.77
2023-03-24T08:42:21.353Z,4.97
2023-03-24T08:44:55.675Z,5.77
2023-03-24T08:47:36.272Z,5.20
2023-03-24T08:50:11.007Z,4.87
2023-03-24T08:52:49.155Z,4.53
2023-03-24T08:55:31.944Z,4.80
2023-03-24T08:58:08.183Z,4.20
2023-03-24T09:00:46.587Z,4.90
2023-03-24T09:03:29.060Z,4.27
2023-03-24T09:06:01.698Z,5.23
2023-03-24T09:08:39.309Z,4.63
2023-03-24T09:11:26.070Z,3.93
2023-03-24T09:14:00.204Z,4.80
2023-03-24T09:16:32.820Z,4.70
2023-03-24T09:19:08.244Z,4.60
2023-03-24T09:21:45.796Z,4.90
2023-03-24T09:24:33.059Z,4.80
2023-03-24T09:27:07.047Z,5.60
2023-03-24T09:29:44.228Z,4.27
2023-03-24T09:32:19.748Z,5.03
2023-03-24T09:34:53.723Z,5.03
2023-03-24T09:37:34.769Z,4.53
2023-03-24T09:40:19.054Z,4.07
2023-03-24T09:42:57.623Z,4.80
2023-03-24T09:45:36.097Z,3.83
2023-03-24T09:48:11.477Z,4.30
2023-03-24T09:50:52.306Z,4.30
2023-03-24T09:53:37.620Z,3.90
2023-03-24T09:56:16.990Z,5.00
2023-03-24T09:58:58.845Z,3.83
2023-03-24T10:01:34.819Z,3.70
2023-03-24T10:04:22.884Z,4.70
2023-03-24T10:07:10.176Z,4.00
2023-03-24T10:09:43.549Z,2.63
2023-03-24T10:12:32.561Z,3.57
2023-03-24T10:15:30.985Z,4.13
2023-03-24T10:18:34.872Z,3.70
2023-03-24T10:21:15.083Z,3.70
2023-03-24T10:23:53.722Z,2.80
2023-03-24T10:26:40.704Z,3.00
2023-03-24T10:29:25.948Z,2.37
2023-03-24T10:32:02.793Z,3.17
2023-03-24T10:34:37.753Z,2.77
2023-03-24T10:38:00.978Z,2.50
2023-03-24T10:40:34.149Z,3.00
2023-03-24T10:43:10.050Z,2.83
2023-03-24T10:45:51.224Z,3.90
2023-03-24T10:48:44.439Z,2.50
2023-03-24T10:51:20.123Z,3.63
2023-03-24T10:53:51.721Z,3.23
2023-03-24T10:56:39.809Z,4.23
2023-03-24T10:59:29.371Z,3.10
2023-03-24T11:02:15.052Z,3.43
2023-03-24T11:04:57.102Z,3.43
2023-03-24T11:07:32.280Z,3.20
2023-03-24T11:16:12.086Z,2.63
2023-03-24T11:18:57.919Z,3.40
2023-03-24T11:21:28.416Z,3.30
2023-03-24T11:24:00.876Z,4.00
2023-03-24T11:26:35.838Z,3.67
2023-03-24T11:29:07.688Z,3.57
2023-03-24T11:31:39.525Z,3.60
2023-03-24T11:34:14.892Z,3.17
2023-03-24T11:36:47.906Z,3.50
2023-03-24T11:39:22.686Z,3.27
2023-03-24T11:42:15.769Z,3.50
2023-03-24T11:44:50.626Z,3.87
2023-03-24T11:47:25.458Z,3.60
2023-03-24T11:50:05.096Z,3.80
2023-03-24T11:52:38.281Z,3.43
2023-03-24T11:55:16.657Z,3.73
2023-03-24T11:57:53.602Z,3.20
2023-03-24T12:00:29.624Z,3.20
2023-03-24T12:03:26.868Z,3.17
2023-03-24T12:06:08.196Z,2.33
2023-03-24T12:08:47.599Z,2.60
2023-03-24T12:11:25.126Z,2.53
2023-03-24T12:13:54.231Z,2.90
2023-03-24T12:16:49.953Z,2.70
2023-03-24T12:19:56.015Z,3.40
2023-03-24T12:22:41.810Z,3.13
2023-03-24T12:25:30.084Z,3.47
2023-03-24T12:28:11.046Z,2.80
2023-03-24T12:30:46.492Z,3.00
2023-03-24T12:33:34.004Z,3.63
2023-03-24T12:36:31.772Z,3.73
2023-03-24T12:39:13.626Z,2.50
2023-03-24T12:41:51.317Z,3.10
2023-03-24T12:44:34.849Z,2.60
2023-03-24T12:47:17.563Z,2.57
2023-03-24T12:50:09.504Z,2.70
2023-03-24T12:53:08.606Z,2.03
2023-03-24T12:55:47.800Z,2.23
2023-03-24T12:58:23.872Z,2.20
2023-03-24T13:01:04.512Z,2.63
2023-03-24T13:03:41.473Z,2.60
2023-03-24T13:06:19.101Z,2.53
2023-03-24T13:09:05.951Z,2.30
2023-03-24T13:11:46.370Z,2.30
2023-03-24T13:14:23.245Z,2.20
2023-03-24T13:16:56.271Z,2.00
2023-03-24T13:19:27.035Z,2.20
2023-03-24T13:21:57.764Z,2.17
2023-03-24T13:24:28.251Z,2.00
2023-03-24T13:27:09.963Z,1.80
2023-03-24T13:30:17.898Z,1.70
2023-03-24T13:32:52.640Z,2.10
2023-03-24T13:35:43.601Z,1.60
2023-03-24T13:38:22.442Z,1.67
2023-03-24T13:40:55.635Z,1.90
2023-03-24T13:43:34.532Z,1.57
2023-03-24T13:46:15.712Z,1.63
2023-03-24T13:48:51.304Z,1.63
2023-03-24T13:51:24.822Z,1.50
2023-03-24T13:54:00.215Z,1.40
2023-03-24T13:56:41.230Z,2.03
2023-03-24T13:59:28.040Z,1.80
2023-03-24T14:02:43.226Z,1.53
2023-03-24T14:05:31.695Z,1.53
2023-03-24T14:08:20.054Z,2.00
2023-03-24T14:10:55.242Z,1.83
2023-03-24T14:13:52.131Z,1.43
2023-03-24T14:16:52.945Z,1.90
2023-03-24T14:19:45.625Z,1.67
2023-03-24T14:22:21.668Z,1.50
2023-03-24T14:25:01.836Z,1.80
2023-03-24T14:27:42.934Z,1.27
2023-03-24T14:30:22.623Z,1.70
2023-03-24T14:32:58.251Z,1.83
2023-03-24T14:35:36.073Z,1.90
2023-03-24T14:38:21.137Z,1.90
2023-03-24T14:40:54.536Z,1.90
2023-03-24T14:43:31.711Z,2.43
2023-03-24T14:46:04.279Z,2.17
2023-03-24T14:48:52.077Z,2.37
2023-03-24T14:51:37.067Z,2.37
2023-03-24T14:54:16.732Z,1.87
2023-03-24T14:56:55.194Z,2.20
2023-03-24T14:59:41.966Z,1.30
2023-03-24T15:02:30.435Z,1.40
2023-03-24T15:05:35.047Z,2.00
2023-03-24T15:08:17.422Z,1.70
2023-03-24T15:10:53.110Z,1.17
2023-03-24T15:13:33.787Z,1.10
2023-03-24T15:16:09.502Z,1.60
2023-03-24T15:19:00.515Z,1.40
2023-03-24T15:21:38.959Z,3.37
2023-03-24T15:24:32.778Z,2.47
2023-03-24T15:27:24.294Z,1.10
2023-03-24T15:30:01.071Z,0.90
2023-03-24T15:32:39.525Z,1.43
2023-03-24T15:35:15.671Z,1.17
2023-03-24T15:37:52.185Z,2.13
2023-03-24T15:40:36.369Z,2.30
2023-03-24T15:43:20.193Z,1.67
2023-03-24T15:46:12.644Z,1.70
2023-03-24T15:48:51.314Z,1.50
2023-03-24T15:51:22.826Z,1.10
2023-03-24T15:54:00.541Z,1.63
2023-03-24T15:56:34.431Z,1.93
2023-03-24T15:59:16.889Z,2.10
2023-03-24T16:01:54.550Z,2.47
2023-03-24T16:04:27.269Z,1.47
2023-03-24T16:07:02.110Z,2.17
2023-03-24T16:09:41.531Z,2.20
2023-03-24T16:12:16.431Z,1.40
2023-03-24T16:14:47.000Z,2.17
2023-03-24T16:17:17.213Z,1.87
2023-03-24T16:19:52.772Z,1.80
2023-03-24T16:22:22.918Z,1.83
2023-03-24T16:24:54.573Z,2.50
2023-03-24T16:27:24.851Z,2.00
2023-03-24T16:29:54.525Z,2.00
2023-03-24T16:32:24.794Z,2.13
2023-03-24T16:34:55.100Z,1.63
2023-03-24T16:37:25.371Z,1.60
2023-03-24T16:40:28.061Z,2.30
2023-03-24T16:42:59.904Z,2.10
2023-03-24T16:45:36.385Z,2.33
2023-03-24T16:48:09.738Z,2.73
2023-03-24T16:50:43.838Z,1.93
2023-03-24T16:53:20.866Z,2.47
2023-03-24T16:55:56.406Z,2.47
2023-03-24T16:58:32.023Z,3.20
2023-03-24T17:01:04.712Z,4.03
2023-03-24T17:03:40.502Z,2.50
2023-03-24T17:06:21.868Z,3.13
2023-03-24T17:08:55.859Z,2.40
2023-03-24T17:11:31.242Z,2.30
2023-03-24T17:14:05.244Z,2.43
2023-03-24T17:16:37.422Z,2.57
2023-03-24T17:19:09.164Z,2.37
2023-03-24T17:21:45.425Z,2.37
2023-03-24T17:24:21.580Z,2.60
2023-03-24T17:26:57.703Z,2.03
2023-03-24T17:29:31.981Z,2.53
2023-03-24T17:32:09.772Z,2.37
2023-03-24T17:34:46.258Z,2.50
2023-03-24T17:37:21.016Z,2.10
2023-03-24T17:39:56.292Z,2.17
2023-03-24T17:42:32.303Z,3.40
2023-03-24T17:45:08.995Z,2.93
2023-03-24T17:47:43.759Z,3.57
2023-03-24T17:50:17.730Z,2.13
2023-03-24T17:52:49.926Z,2.70
2023-03-24T17:55:21.373Z,2.60
2023-03-24T17:57:55.429Z,3.27
2023-03-24T18:00:27.667Z,3.83
2023-03-24T18:03:00.811Z,2.80
2023-03-24T18:05:33.256Z,3.10
2023-03-24T18:08:03.809Z,2.80
2023-03-24T18:10:38.639Z,3.60
2023-03-24T18:13:11.354Z,3.70
2023-03-24T18:15:44.397Z,3.30
2023-03-24T18:18:15.114Z,4.07
2023-03-24T18:20:46.403Z,4.17
2023-03-24T18:23:18.105Z,3.90
2023-03-24T18:25:47.859Z,4.00
2023-03-24T18:28:18.616Z,3.13
2023-03-24T18:30:48.547Z,4.30
2023-03-24T18:33:18.791Z,5.53
2023-03-24T18:35:53.027Z,5.40
2023-03-24T18:38:22.783Z,4.60
2023-03-24T18:41:00.991Z,7.57
2023-03-24T18:43:34.674Z,4.57
2023-03-24T18:46:04.156Z,4.50
2023-03-24T18:48:34.216Z,5.33
2023-03-24T18:51:03.962Z,5.13
2023-03-24T18:53:34.882Z,5.03
2023-03-24T18:56:05.967Z,4.70
2023-03-24T18:58:42.816Z,5.00
2023-03-24T19:01:15.089Z,6.40
2023-03-24T19:03:46.106Z,4.80
2023-03-24T19:06:21.297Z,4.80
2023-03-24T19:08:53.830Z,6.50
2023-03-24T19:11:23.635Z,5.50
2023-03-24T19:13:56.899Z,4.60
2023-03-24T19:16:26.485Z,5.23
2023-03-24T19:18:58.021Z,4.77
2023-03-24T19:21:28.892Z,4.87
2023-03-24T19:23:59.080Z,5.80
2023-03-24T19:26:29.590Z,4.40
2023-03-24T19:29:02.126Z,3.07
2023-03-24T19:31:33.700Z,4.17
2023-03-24T19:34:03.121Z,3.17
2023-03-24T19:36:34.592Z,2.80
2023-03-24T19:39:04.754Z,4.10
2023-03-24T19:41:34.134Z,4.17
2023-03-24T19:44:05.396Z,3.87
2023-03-24T19:46:35.016Z,4.50
2023-03-24T19:49:06.104Z,4.13
2023-03-24T19:51:35.603Z,4.80
2023-03-24T19:54:05.278Z,6.17
2023-03-24T19:56:35.689Z,4.53
2023-03-24T19:59:06.701Z,4.07
2023-03-24T20:01:38.514Z,5.20
2023-03-24T20:04:08.188Z,3.73
2023-03-24T20:06:38.060Z,4.23
2023-03-24T20:09:07.816Z,4.03
2023-03-24T20:11:40.353Z,3.40
2023-03-24T20:14:12.054Z,3.20
2023-03-24T20:16:41.422Z,2.93
2023-03-24T20:19:10.993Z,2.67
2023-03-24T20:21:40.418Z,2.83
2023-03-24T20:24:10.337Z,3.50
2023-03-24T20:26:39.718Z,2.53
2023-03-24T20:29:10.615Z,3.13
2023-03-24T20:31:41.399Z,1.90
2023-03-24T20:34:11.927Z,1.70
2023-03-24T20:36:43.433Z,2.13
2023-03-24T20:39:13.699Z,2.20
2023-03-24T20:41:46.196Z,2.57
2023-03-24T20:44:16.784Z,2.17
2023-03-24T20:46:46.331Z,2.50
2023-03-24T20:49:17.090Z,2.10
2023-03-24T20:51:47.569Z,2.07
2023-03-24T20:54:17.011Z,2.00
2023-03-24T20:56:46.912Z,2.17
2023-03-24T20:59:18.599Z,2.30
2023-03-24T21:01:48.649Z,5.13
2023-03-24T21:04:20.362Z,3.50
2023-03-24T21:06:49.640Z,2.80
2023-03-24T21:09:23.289Z,2.27
2023-03-24T21:11:52.575Z,2.03
2023-03-24T21:14:23.825Z,2.90
2023-03-24T21:16:53.906Z,2.40
2023-03-24T21:19:25.922Z,2.53
2023-03-24T21:21:56.506Z,3.03
2023-03-24T21:24:26.861Z,3.07
2023-03-24T21:26:57.415Z,2.85
2023-03-24T21:29:29.248Z,3.40
2023-03-24T21:31:58.738Z,3.03
2023-03-24T21:34:28.158Z,2.60
2023-03-24T21:37:01.445Z,2.60
2023-03-24T21:39:31.025Z,2.85
2023-03-24T21:42:05.380Z,2.83
2023-03-24T21:44:36.388Z,3.20
2023-03-24T21:47:05.921Z,5.35
2023-03-24T21:49:36.119Z,2.85
2023-03-24T21:52:06.292Z,3.23
2023-03-24T21:54:36.818Z,3.70
2023-03-24T21:57:06.459Z,2.70
2023-03-24T21:59:37.959Z,3.00
2023-03-24T22:02:08.488Z,4.33
2023-03-24T22:04:38.825Z,4.07
2023-03-24T22:07:10.344Z,2.87
2023-03-24T22:09:41.355Z,3.80
2023-03-24T22:12:11.510Z,3.10
2023-03-24T22:14:42.324Z,3.20
2023-03-24T22:17:14.967Z,3.60
2023-03-24T22:19:45.755Z,3.17
2023-03-24T22:22:15.878Z,3.67
2023-03-24T22:24:46.877Z,4.97
2023-03-24T22:27:17.965Z,3.80
2023-03-24T22:29:49.326Z,4.80
2023-03-24T22:32:19.254Z,4.03
2023-03-24T22:34:48.524Z,3.73
2023-03-24T22:37:17.948Z,3.70
2023-03-24T22:39:47.697Z,5.22
2023-03-24T22:42:17.491Z,4.13
2023-03-24T22:44:49.521Z,4.67
2023-03-24T22:47:20.342Z,3.80
2023-03-24T22:49:49.864Z,3.70
2023-03-24T22:52:19.601Z,4.10
2023-03-24T22:54:51.736Z,3.63
2023-03-24T22:57:21.589Z,4.10
2023-03-24T22:59:54.424Z,3.38
2023-03-24T23:02:24.855Z,3.55
2023-03-24T23:04:55.298Z,3.13
2023-03-24T23:07:24.781Z,2.90
2023-03-24T23:09:55.245Z,3.83
2023-03-24T23:12:25.379Z,5.95
2023-03-24T23:14:57.005Z,3.40
2023-03-24T23:17:27.833Z,4.63
2023-03-24T23:19:57.329Z,6.97
2023-03-24T23:22:26.793Z,4.20
2023-03-24T23:25:04.221Z,4.20
2023-03-24T23:27:36.434Z,4.57
2023-03-24T23:30:10.208Z,5.07
2023-03-24T23:32:44.044Z,3.57
2023-03-24T23:35:26.795Z,3.85
2023-03-24T23:37:55.614Z,3.85
2023-03-24T23:40:24.712Z,2.95
2023-03-24T23:42:53.604Z,3.88
2023-03-24T23:45:23.869Z,3.60
2023-03-24T23:47:53.158Z,3.85
2023-03-24T23:50:23.676Z,2.67
2023-03-24T23:52:52.454Z,3.13
2023-03-24T23:55:21.534Z,2.50
2023-03-24T23:58:20.979Z,2.83
